Time;durP1;ratioP1;P1;durP2;ratioP2;P2;SDS_P1;SDS_P2;PMS_P1;PMS_P2;Temp;Humidity;BMP_temperature;BMP_pressure;BME280_temperature;BME280_humidity;BME280_pressure;Samples;Min_cycle;Max_cycle;Signal;HPM_P1;HPM_P2
2021/12/07 00:02:36;;;;;;;;;;;;;;;;;;4183580;28;7368;-53
2021/12/07 00:04:57;;;;;;;;;;;;;;;;;;4183858;28;7042;-53
2021/12/07 00:07:18;;;;;;;;;;;;;;;;;;4182444;28;7035;-53
2021/12/07 00:09:43;;;;;;;;;;;;;;;;;;4183343;28;7061;-53
2021/12/07 00:12:06;;;;;;;;;;;;;;;;;;4183473;28;7403;-53
2021/12/07 00:14:34;;;;;;;;;;;;;;;;;;4183602;28;7213;-53
2021/12/07 00:16:55;;;;;;;;;;;;;;;;;;4183685;28;7220;-53
2021/12/07 00:19:17;;;;;;;;;;;;;;;;;;4183158;28;6998;-53
2021/12/07 00:21:38;;;;;;;;;;;;;;;;;;4183731;28;7015;-53
2021/12/07 00:24:00;;;;;;;;;;;;;;;;;;4183638;28;6977;-53
2021/12/07 00:26:21;;;;;;;;;;;;;;;;;;4183207;28;7065;-53
2021/12/07 00:28:44;;;;;;;;;;;;;;;;;;4183269;28;7022;-54
2021/12/07 00:31:12;;;;;;;;;;;;;;;;;;4183593;28;7003;-53
2021/12/07 00:33:42;;;;;;;;;;;;;;;;;;4166777;28;7259;-53
2021/12/07 00:36:03;;;;;;;;;;;;;;;;;;4166520;28;7006;-53
2021/12/07 00:38:25;;;;;;;;;;;;;;;;;;4180156;28;7047;-53
2021/12/07 00:40:46;;;;;;;;;;;;;;;;;;4183155;28;7020;-53
2021/12/07 00:43:07;;;;;;;;;;;;;;;;;;4182831;28;7179;-53
2021/12/07 00:45:33;;;;;;;;;;;;;;;;;;4183205;28;7061;-53
2021/12/07 00:47:54;;;;;;;;;;;;;;;;;;4196390;28;7010;-53
2021/12/07 00:50:16;;;;;;;;;;;;;;;;;;4182778;28;7190;-53
2021/12/07 00:52:37;;;;;;;;;;;;;;;;;;4182896;28;7130;-53
2021/12/07 00:54:58;;;;;;;;;;;;;;;;;;4182720;28;7002;-53
2021/12/07 00:57:21;;;;;;;;;;;;;;;;;;4182770;28;7010;-53
2021/12/07 00:59:42;;;;;;;;;;;;;;;;;;4181554;28;7045;-53
2021/12/07 01:02:05;;;;;;;;;;;;;;;;;;4183202;28;6998;-53
2021/12/07 01:04:28;;;;;;;;;;;;;;;;;;4182842;28;6990;-53
2021/12/07 01:07:01;;;;;;;;;;;;;;;;;;4181940;28;7011;-53
2021/12/07 01:09:28;;;;;;;;;;;;;;;;;;4182604;28;7011;-53
2021/12/07 01:25:18;;;;;;;;;;;;;;;;;;4183256;28;6998;-53
2021/12/07 01:27:40;;;;;;;;;;;;;;;;;;4199108;28;7013;-54
2021/12/07 01:30:08;;;;;;;;;;;;;;;;;;4199069;28;7282;-53
2021/12/07 01:32:45;;;;;;;;;;;;;;;;;;4197264;28;7014;-53
2021/12/07 01:38:03;;;;;;;;;;;;;;;;;;4198722;28;7044;-53
2021/12/07 01:46:04;;;;;;;;;;;;;;;;;;4164736;28;7002;-53
2021/12/07 01:51:21;;;;;;;;;;;;;;;;;;4164202;28;7081;-53
2021/12/07 02:01:41;;;;;;;;;;;;;;;;;;4176111;28;7103;-53
2021/12/07 02:04:04;;;;;;;;;;;;;;;;;;4179094;28;7058;-53
2021/12/07 02:06:26;;;;;;;;;;;;;;;;;;4180834;28;7178;-52
2021/12/07 02:08:48;;;;;;;;;;;;;;;;;;4181144;28;7120;-53
2021/12/07 02:11:09;;;;;;;;;;;;;;;;;;4180036;28;7182;-54
2021/12/07 02:16:15;;;;;;;;;;;;;;;;;;4181012;28;7041;-52
2021/12/07 02:18:38;;;;;;;;;;;;;;;;;;4179022;28;7065;-53
2021/12/07 02:21:11;;;;;;;;;;;;;;;;;;4174578;28;7047;-53
2021/12/07 02:23:32;;;;;;;;;;;;;;;;;;4164310;28;7002;-53
2021/12/07 02:25:53;;;;;;;;;;;;;;;;;;4177575;28;7077;-53
2021/12/07 02:28:15;;;;;;;;;;;;;;;;;;4164321;28;7286;-53
2021/12/07 02:30:37;;;;;;;;;;;;;;;;;;4165729;28;7003;-53
2021/12/07 02:32:58;;;;;;;;;;;;;;;;;;4164627;28;7010;-52
2021/12/07 02:35:24;;;;;;;;;;;;;;;;;;4162727;28;7590;-53
2021/12/07 02:37:50;;;;;;;;;;;;;;;;;;4163430;28;7006;-53
2021/12/07 02:40:11;;;;;;;;;;;;;;;;;;4177386;28;7221;-53
2021/12/07 02:42:35;;;;;;;;;;;;;;;;;;4162845;28;7010;-53
2021/12/07 02:44:57;;;;;;;;;;;;;;;;;;4177127;28;7084;-53
2021/12/07 02:47:19;;;;;;;;;;;;;;;;;;4163034;28;7322;-54
2021/12/07 02:49:40;;;;;;;;;;;;;;;;;;4164060;28;7057;-53
2021/12/07 02:52:02;;;;;;;;;;;;;;;;;;4163185;28;7163;-53
2021/12/07 02:54:28;;;;;;;;;;;;;;;;;;4179179;28;7592;-53
2021/12/07 02:56:51;;;;;;;;;;;;;;;;;;4177928;28;7015;-53
2021/12/07 02:59:12;;;;;;;;;;;;;;;;;;4179534;28;7023;-54
2021/12/07 03:01:40;;;;;;;;;;;;;;;;;;4180357;28;6999;-53
2021/12/07 03:04:07;;;;;;;;;;;;;;;;;;4177529;28;7183;-52
2021/12/07 03:06:45;;;;;;;;;;;;;;;;;;4165311;28;7175;-53
2021/12/07 03:27:49;;;;;;;;;;;;;;;;;;4179503;28;7029;-53
2021/12/07 03:30:10;;;;;;;;;;;;;;;;;;4171302;28;7057;-52
2021/12/07 03:32:34;;;;;;;;;;;;;;;;;;4179719;28;7068;-53
2021/12/07 03:34:56;;;;;;;;;;;;;;;;;;4179354;28;6999;-52
2021/12/07 03:37:17;;;;;;;;;;;;;;;;;;4179294;28;7014;-55
2021/12/07 03:39:39;;;;;;;;;;;;;;;;;;4180828;28;6986;-53
2021/12/07 03:42:00;;;;;;;;;;;;;;;;;;4180326;28;7004;-52
2021/12/07 03:44:23;;;;;;;;;;;;;;;;;;4178917;28;7018;-53
2021/12/07 03:46:45;;;;;;;;;;;;;;;;;;4179793;28;7037;-53
2021/12/07 03:49:07;;;;;;;;;;;;;;;;;;4179138;28;7046;-53
2021/12/07 03:51:28;;;;;;;;;;;;;;;;;;4178914;28;7065;-52
2021/12/07 03:53:52;;;;;;;;;;;;;;;;;;4179236;28;7139;-53
2021/12/07 03:56:15;;;;;;;;;;;;;;;;;;4193207;28;7002;-53
2021/12/07 03:58:38;;;;;;;;;;;;;;;;;;4179252;28;7042;-53
2021/12/07 04:01:01;;;;;;;;;;;;;;;;;;4178971;28;7007;-52
2021/12/07 04:03:23;;;;;;;;;;;;;;;;;;4163947;28;7006;-53
2021/12/07 04:05:48;;;;;;;;;;;;;;;;;;4163713;28;7009;-53
2021/12/07 04:08:13;;;;;;;;;;;;;;;;;;4162754;28;7197;-53
2021/12/07 04:10:35;;;;;;;;;;;;;;;;;;4163043;28;6978;-54
2021/12/07 04:12:56;;;;;;;;;;;;;;;;;;4162591;28;7002;-53
2021/12/07 04:15:17;;;;;;;;;;;;;;;;;;4162587;28;7014;-53
2021/12/07 04:17:40;;;;;;;;;;;;;;;;;;4148515;28;7251;-53
2021/12/07 04:20:02;;;;;;;;;;;;;;;;;;4162603;28;7536;-53
2021/12/07 04:22:23;;;;;;;;;;;;;;;;;;4163046;28;7260;-53
2021/12/07 04:24:44;;;;;;;;;;;;;;;;;;4163940;28;7019;-52
2021/12/07 04:27:06;;;;;;;;;;;;;;;;;;4163836;28;6978;-53
2021/12/07 04:29:27;;;;;;;;;;;;;;;;;;4163575;28;7104;-54
2021/12/07 04:31:48;;;;;;;;;;;;;;;;;;4163653;28;7061;-53
2021/12/07 04:34:11;;;;;;;;;;;;;;;;;;4163929;28;7003;-53
2021/12/07 04:36:32;;;;;;;;;;;;;;;;;;4163580;28;7470;-53
2021/12/07 04:38:54;;;;;;;;;;;;;;;;;;4163925;28;7006;-53
2021/12/07 04:41:15;;;;;;;;;;;;;;;;;;4163971;28;7406;-53
2021/12/07 04:43:36;;;;;;;;;;;;;;;;;;4166734;28;7007;-53
2021/12/07 04:46:07;;;;;;;;;;;;;;;;;;4166815;28;7007;-52
2021/12/07 04:48:54;;;;;;;;;;;;;;;;;;4166688;28;7011;-53
2021/12/07 04:59:27;;;;;;;;;;;;;;;;;;4159846;28;7543;-53
2021/12/07 05:01:49;;;;;;;;;;;;;;;;;;4166638;28;7007;-53
2021/12/07 05:04:15;;;;;;;;;;;;;;;;;;4166564;28;7002;-53
2021/12/07 05:06:42;;;;;;;;;;;;;;;;;;4166517;28;6994;-53
2021/12/07 05:09:19;;;;;;;;;;;;;;;;;;4166530;28;7170;-53
2021/12/07 05:11:52;;;;;;;;;;;;;;;;;;4166413;28;7034;-53
2021/12/07 05:14:18;;;;;;;;;;;;;;;;;;4166197;28;7011;-53
2021/12/07 05:16:52;;;;;;;;;;;;;;;;;;4166347;28;7044;-53
2021/12/07 05:24:38;;;;;;;;;;;;;;;;;;4166152;28;7006;-54
2021/12/07 05:37:49;;;;;;;;;;;;;;;;;;4165750;28;7455;-53
2021/12/07 05:40:11;;;;;;;;;;;;;;;;;;4165675;28;7184;-53
2021/12/07 05:42:33;;;;;;;;;;;;;;;;;;4165762;28;7435;-53
2021/12/07 05:44:54;;;;;;;;;;;;;;;;;;4165679;28;7436;-53
2021/12/07 05:47:16;;;;;;;;;;;;;;;;;;4169823;28;6990;-53
2021/12/07 05:49:37;;;;;;;;;;;;;;;;;;4181909;28;7199;-53
2021/12/07 05:51:58;;;;;;;;;;;;;;;;;;4181992;28;7011;-52
2021/12/07 05:54:21;;;;;;;;;;;;;;;;;;4182137;28;7081;-53
2021/12/07 05:56:42;;;;;;;;;;;;;;;;;;4182029;28;7025;-53
2021/12/07 05:59:03;;;;;;;;;;;;;;;;;;4182000;28;7019;-53
2021/12/07 06:01:24;;;;;;;;;;;;;;;;;;4181801;28;7018;-54
2021/12/07 06:03:46;;;;;;;;;;;;;;;;;;4181799;28;7033;-53
2021/12/07 06:06:07;;;;;;;;;;;;;;;;;;4181798;28;7718;-52
2021/12/07 06:08:29;;;;;;;;;;;;;;;;;;4181940;28;7427;-52
2021/12/07 06:10:52;;;;;;;;;;;;;;;;;;4180444;28;7194;-52
2021/12/07 06:13:13;;;;;;;;;;;;;;;;;;4181845;28;7021;-52
2021/12/07 06:15:36;;;;;;;;;;;;;;;;;;4181710;28;6986;-51
2021/12/07 06:17:57;;;;;;;;;;;;;;;;;;4181546;28;7135;-52
2021/12/07 06:20:19;;;;;;;;;;;;;;;;;;4181893;28;7029;-52
2021/12/07 06:22:40;;;;;;;;;;;;;;;;;;4181784;28;7177;-52
2021/12/07 06:25:01;;;;;;;;;;;;;;;;;;4181571;28;7010;-53
2021/12/07 06:27:23;;;;;;;;;;;;;;;;;;4180148;28;7022;-51
2021/12/07 06:29:45;;;;;;;;;;;;;;;;;;4181677;28;6974;-52
2021/12/07 06:32:06;;;;;;;;;;;;;;;;;;4180248;28;7003;-52
2021/12/07 06:34:27;;;;;;;;;;;;;;;;;;4181471;28;7025;-52
2021/12/07 06:36:48;;;;;;;;;;;;;;;;;;4181578;28;7009;-52
2021/12/07 06:39:10;;;;;;;;;;;;;;;;;;4181353;28;7458;-52
2021/12/07 06:41:31;;;;;;;;;;;;;;;;;;4178611;28;7026;-52
2021/12/07 06:43:54;;;;;;;;;;;;;;;;;;4164877;28;6994;-52
2021/12/07 06:46:15;;;;;;;;;;;;;;;;;;4164713;28;7190;-52
2021/12/07 06:48:36;;;;;;;;;;;;;;;;;;4163895;28;6990;-52
2021/12/07 06:50:58;;;;;;;;;;;;;;;;;;4164843;28;7289;-51
2021/12/07 06:53:19;;;;;;;;;;;;;;;;;;4164847;28;7134;-51
2021/12/07 06:55:40;;;;;;;;;;;;;;;;;;4164757;28;6986;-51
2021/12/07 06:58:02;;;;;;;;;;;;;;;;;;4164614;28;7183;-51
2021/12/07 07:00:24;;;;;;;;;;;;;;;;;;4164499;28;7053;-52
2021/12/07 07:02:46;;;;;;;;;;;;;;;;;;4164538;28;7037;-54
2021/12/07 07:05:07;;;;;;;;;;;;;;;;;;4163863;28;7038;-52
2021/12/07 07:07:28;;;;;;;;;;;;;;;;;;4164559;28;7041;-54
2021/12/07 07:09:50;;;;;;;;;;;;;;;;;;4164507;28;7015;-52
2021/12/07 07:12:11;;;;;;;;;;;;;;;;;;4164230;28;7014;-51
2021/12/07 07:14:32;;;;;;;;;;;;;;;;;;4164293;28;7025;-52
2021/12/07 07:16:55;;;;;;;;;;;;;;;;;;4164234;28;7065;-54
2021/12/07 07:19:16;;;;;;;;;;;;;;;;;;4164237;28;7002;-51
2021/12/07 07:21:37;;;;;;;;;;;;;;;;;;4164434;28;7014;-52
2021/12/07 07:23:59;;;;;;;;;;;;;;;;;;4164226;28;7051;-51
2021/12/07 07:26:20;;;;;;;;;;;;;;;;;;4163981;28;7023;-51
2021/12/07 07:28:42;;;;;;;;;;;;;;;;;;4164475;28;6990;-51
2021/12/07 07:31:04;;;;;;;;;;;;;;;;;;4164392;28;6990;-52
2021/12/07 07:33:27;;;;;;;;;;;;;;;;;;4164105;28;7006;-52
2021/12/07 07:35:49;;;;;;;;;;;;;;;;;;4164330;28;7111;-52
2021/12/07 07:38:10;;;;;;;;;;;;;;;;;;4164113;28;7029;-51
2021/12/07 07:40:31;;;;;;;;;;;;;;;;;;4164221;28;7002;-52
2021/12/07 07:42:52;;;;;;;;;;;;;;;;;;4164327;28;6998;-51
2021/12/07 07:45:33;;;;;;;;;;;;;;;;;;4164827;28;7151;-52
2021/12/07 07:47:54;;;;;;;;;;;;;;;;;;4163065;28;7131;-51
2021/12/07 07:50:17;;;;;;;;;;;;;;;;;;4157848;28;6987;-52
2021/12/07 07:52:39;;;;;;;;;;;;;;;;;;4163826;28;7039;-52
2021/12/07 07:55:00;;;;;;;;;;;;;;;;;;4163679;28;7231;-51
2021/12/07 07:57:22;;;;;;;;;;;;;;;;;;4164092;28;7073;-51
2021/12/07 07:59:43;;;;;;;;;;;;;;;;;;4159603;28;7163;-52
2021/12/07 08:02:05;;;;;;;;;;;;;;;;;;4163944;28;7037;-51
2021/12/07 08:04:26;;;;;;;;;;;;;;;;;;4177040;28;7053;-51
2021/12/07 08:06:48;;;;;;;;;;;;;;;;;;4164081;28;7404;-51
2021/12/07 08:09:09;;;;;;;;;;;;;;;;;;4164015;28;7034;-52
2021/12/07 08:11:31;;;;;;;;;;;;;;;;;;4164005;28;7015;-51
2021/12/07 08:13:52;;;;;;;;;;;;;;;;;;4164080;28;7068;-51
2021/12/07 08:16:16;;;;;;;;;;;;;;;;;;4164269;28;7053;-51
2021/12/07 08:18:37;;;;;;;;;;;;;;;;;;4167159;28;6998;-52
2021/12/07 08:20:58;;;;;;;;;;;;;;;;;;4167355;28;7015;-51
2021/12/07 08:23:21;;;;;;;;;;;;;;;;;;4167116;28;7003;-51
2021/12/07 08:25:43;;;;;;;;;;;;;;;;;;4167140;28;7014;-51
2021/12/07 08:28:07;;;;;;;;;;;;;;;;;;4173963;28;6982;-51
2021/12/07 08:30:28;;;;;;;;;;;;;;;;;;4167085;28;6990;-51
2021/12/07 08:32:50;;;;;;;;;;;;;;;;;;4173108;28;6994;-52
2021/12/07 08:35:13;;;;;;;;;;;;;;;;;;4152336;28;7034;-52
2021/12/07 08:37:34;;;;;;;;;;;;;;;;;;4150395;28;7058;-51
2021/12/07 08:39:57;;;;;;;;;;;;;;;;;;4165819;28;7019;-51
2021/12/07 08:42:19;;;;;;;;;;;;;;;;;;4166371;28;7018;-51
2021/12/07 08:44:41;;;;;;;;;;;;;;;;;;4166160;28;6995;-51
2021/12/07 08:47:02;;;;;;;;;;;;;;;;;;4163376;28;7459;-51
2021/12/07 08:49:24;;;;;;;;;;;;;;;;;;4163089;28;7057;-51
2021/12/07 08:51:45;;;;;;;;;;;;;;;;;;4164195;28;7081;-50
2021/12/07 08:54:23;;;;;;;;;;;;;;;;;;4164920;28;7057;-51
2021/12/07 09:02:02;;;;;;;;;;;;;;;;;;4166616;28;7227;-52
2021/12/07 09:04:23;;;;;;;;;;;;;;;;;;4166393;28;7010;-51
2021/12/07 09:06:45;;;;;;;;;;;;;;;;;;4166373;28;7010;-53
2021/12/07 09:09:06;;;;;;;;;;;;;;;;;;4166706;28;7110;-52
2021/12/07 09:11:27;;;;;;;;;;;;;;;;;;4166301;28;7514;-53
2021/12/07 09:13:49;;;;;;;;;;;;;;;;;;4166565;28;6979;-53
2021/12/07 09:16:11;;;;;;;;;;;;;;;;;;4165181;28;7143;-51
2021/12/07 09:18:32;;;;;;;;;;;;;;;;;;4162337;28;7053;-52
2021/12/07 09:20:54;;;;;;;;;;;;;;;;;;4159758;28;6998;-52
2021/12/07 09:23:15;;;;;;;;;;;;;;;;;;4171637;28;7179;-51
2021/12/07 09:25:37;;;;;;;;;;;;;;;;;;4165186;28;7006;-51
2021/12/07 09:27:58;;;;;;;;;;;;;;;;;;4162497;28;7007;-51
2021/12/07 09:30:21;;;;;;;;;;;;;;;;;;4151483;28;7006;-52
2021/12/07 09:32:42;;;;;;;;;;;;;;;;;;4165682;28;7051;-52
2021/12/07 09:35:04;;;;;;;;;;;;;;;;;;4165551;28;7030;-52
2021/12/07 09:37:25;;;;;;;;;;;;;;;;;;4150018;28;7573;-52
2021/12/07 09:39:46;;;;;;;;;;;;;;;;;;4155398;28;7053;-52
2021/12/07 09:42:08;;;;;;;;;;;;;;;;;;4165376;28;7018;-52
2021/12/07 09:44:29;;;;;;;;;;;;;;;;;;4165710;28;6978;-52
2021/12/07 09:46:52;;;;;;;;;;;;;;;;;;4163684;28;7268;-52
2021/12/07 09:49:13;;;;;;;;;;;;;;;;;;4162726;28;7006;-52
2021/12/07 09:51:34;;;;;;;;;;;;;;;;;;4162144;28;7065;-52
2021/12/07 09:53:56;;;;;;;;;;;;;;;;;;4165319;28;7006;-52
2021/12/07 09:56:18;;;;;;;;;;;;;;;;;;4182085;28;7021;-52
2021/12/07 09:58:39;;;;;;;;;;;;;;;;;;4182119;28;7108;-52
2021/12/07 10:01:00;;;;;;;;;;;;;;;;;;4181433;28;7048;-52
2021/12/07 10:03:23;;;;;;;;;;;;;;;;;;4181901;28;7006;-52
2021/12/07 10:05:45;;;;;;;;;;;;;;;;;;4179381;28;7019;-52
2021/12/07 10:08:06;;;;;;;;;;;;;;;;;;4165418;28;7052;-52
2021/12/07 10:10:28;;;;;;;;;;;;;;;;;;4165587;28;6999;-53
2021/12/07 10:12:49;;;;;;;;;;;;;;;;;;4165469;28;7017;-52
2021/12/07 10:15:11;;;;;;;;;;;;;;;;;;4165480;28;7019;-52
2021/12/07 10:17:35;;;;;;;;;;;;;;;;;;4148671;28;7055;-52
2021/12/07 10:19:58;;;;;;;;;;;;;;;;;;4148464;28;7008;-52
2021/12/07 10:22:21;;;;;;;;;;;;;;;;;;4161283;28;7400;-52
2021/12/07 10:24:45;;;;;;;;;;;;;;;;;;4164958;28;7500;-52
2021/12/07 10:27:07;;;;;;;;;;;;;;;;;;4165066;28;7115;-52
2021/12/07 10:29:28;;;;;;;;;;;;;;;;;;4165097;28;7160;-52
2021/12/07 10:31:50;;;;;;;;;;;;;;;;;;4164788;28;7031;-52
2021/12/07 10:34:14;;;;;;;;;;;;;;;;;;4164646;28;7006;-52
2021/12/07 10:36:36;;;;;;;;;;;;;;;;;;4164657;28;6982;-52
2021/12/07 10:39:00;;;;;;;;;;;;;;;;;;4164240;28;6994;-52
2021/12/07 10:41:24;;;;;;;;;;;;;;;;;;4164971;28;6990;-52
2021/12/07 10:43:46;;;;;;;;;;;;;;;;;;4164857;28;7002;-52
2021/12/07 10:46:22;;;;;;;;;;;;;;;;;;4164665;28;7268;-52
2021/12/07 10:48:44;;;;;;;;;;;;;;;;;;4164771;28;7002;-52
2021/12/07 10:51:10;;;;;;;;;;;;;;;;;;4159583;28;7015;-52
2021/12/07 10:53:36;;;;;;;;;;;;;;;;;;4148516;28;7197;-52
2021/12/07 10:55:57;;;;;;;;;;;;;;;;;;4146864;28;7420;-52
2021/12/07 10:58:18;;;;;;;;;;;;;;;;;;4148254;28;7474;-52
2021/12/07 11:00:42;;;;;;;;;;;;;;;;;;4148034;28;7054;-52
2021/12/07 11:03:04;;;;;;;;;;;;;;;;;;4147995;28;6982;-51
2021/12/07 11:05:27;;;;;;;;;;;;;;;;;;4147818;28;7179;-52
2021/12/07 11:07:48;;;;;;;;;;;;;;;;;;4147988;28;7026;-52
2021/12/07 11:10:15;;;;;;;;;;;;;;;;;;4147936;28;7003;-52
2021/12/07 11:12:43;;;;;;;;;;;;;;;;;;4147948;28;7003;-52
2021/12/07 11:15:12;;;;;;;;;;;;;;;;;;4148165;28;7391;-52
2021/12/07 11:17:34;;;;;;;;;;;;;;;;;;4148135;28;7018;-52
2021/12/07 11:19:55;;;;;;;;;;;;;;;;;;4147874;28;7015;-52
2021/12/07 11:22:17;;;;;;;;;;;;;;;;;;4162286;28;7041;-52
2021/12/07 11:24:39;;;;;;;;;;;;;;;;;;4164469;28;7124;-51
2021/12/07 11:29:47;;;;;;;;;;;;;;;;;;4164159;28;6990;-52
2021/12/07 11:32:08;;;;;;;;;;;;;;;;;;4164183;28;7199;-52
2021/12/07 11:34:31;;;;;;;;;;;;;;;;;;4163748;28;7053;-52
2021/12/07 11:36:53;;;;;;;;;;;;;;;;;;4152818;28;7164;-52
2021/12/07 11:39:22;;;;;;;;;;;;;;;;;;4147392;28;6998;-52
2021/12/07 11:41:43;;;;;;;;;;;;;;;;;;4147763;28;7494;-52
2021/12/07 11:44:07;;;;;;;;;;;;;;;;;;4147470;28;7022;-52
2021/12/07 11:46:29;;;;;;;;;;;;;;;;;;4147249;28;7161;-52
2021/12/07 11:49:02;;;;;;;;;;;;;;;;;;4147849;28;6994;-52
2021/12/07 11:51:24;;;;;;;;;;;;;;;;;;4146972;28;7200;-52
2021/12/07 11:53:45;;;;;;;;;;;;;;;;;;4147763;28;7210;-52
2021/12/07 11:56:06;;;;;;;;;;;;;;;;;;4147408;28;7015;-52
2021/12/07 11:58:28;;;;;;;;;;;;;;;;;;4147776;28;7029;-51
2021/12/07 12:00:51;;;;;;;;;;;;;;;;;;4147268;28;6987;-52
2021/12/07 12:03:14;;;;;;;;;;;;;;;;;;4147294;28;7091;-52
2021/12/07 12:05:35;;;;;;;;;;;;;;;;;;4147153;28;7493;-52
2021/12/07 12:07:57;;;;;;;;;;;;;;;;;;4147338;28;6991;-52
2021/12/07 12:10:19;;;;;;;;;;;;;;;;;;4147501;28;7276;-52
2021/12/07 12:12:50;;;;;;;;;;;;;;;;;;4147306;28;7058;-52
2021/12/07 12:15:16;;;;;;;;;;;;;;;;;;4147101;28;7022;-52
2021/12/07 12:17:54;;;;;;;;;;;;;;;;;;4147550;28;7144;-52
2021/12/07 12:20:20;;;;;;;;;;;;;;;;;;4147283;28;7015;-52
2021/12/07 12:22:42;;;;;;;;;;;;;;;;;;4147557;28;7410;-52
2021/12/07 12:25:05;;;;;;;;;;;;;;;;;;4147213;28;7043;-52
2021/12/07 12:27:30;;;;;;;;;;;;;;;;;;4147264;28;7466;-52
2021/12/07 12:29:52;;;;;;;;;;;;;;;;;;4147193;28;7057;-52
2021/12/07 12:32:15;;;;;;;;;;;;;;;;;;4147085;28;7051;-52
2021/12/07 12:34:38;;;;;;;;;;;;;;;;;;4147181;28;7029;-52
2021/12/07 12:37:00;;;;;;;;;;;;;;;;;;4146951;28;7407;-53
2021/12/07 12:39:23;;;;;;;;;;;;;;;;;;4147246;28;6995;-52
2021/12/07 12:41:45;;;;;;;;;;;;;;;;;;4147218;28;6991;-52
2021/12/07 12:44:07;;;;;;;;;;;;;;;;;;4147286;28;7042;-53
2021/12/07 12:46:28;;;;;;;;;;;;;;;;;;4147329;28;7063;-52
2021/12/07 12:48:50;;;;;;;;;;;;;;;;;;4147418;28;7010;-52
2021/12/07 12:51:13;;;;;;;;;;;;;;;;;;4146658;28;7007;-52
2021/12/07 12:53:34;;;;;;;;;;;;;;;;;;4147092;28;7002;-52
2021/12/07 12:55:56;;;;;;;;;;;;;;;;;;4147335;28;6986;-51
2021/12/07 12:58:18;;;;;;;;;;;;;;;;;;4146931;28;7225;-52
2021/12/07 13:01:03;;;;;;;;;;;;;;;;;;4146878;28;7042;-52
2021/12/07 13:03:25;;;;;;;;;;;;;;;;;;4151886;28;7065;-52
2021/12/07 13:05:46;;;;;;;;;;;;;;;;;;4164091;28;7010;-52
2021/12/07 13:08:15;;;;;;;;;;;;;;;;;;4149788;28;6986;-52
2021/12/07 13:10:49;;;;;;;;;;;;;;;;;;4149863;28;7006;-52
2021/12/07 13:13:23;;;;;;;;;;;;;;;;;;4149893;28;6978;-52
2021/12/07 13:15:44;;;;;;;;;;;;;;;;;;4164893;28;7113;-52
2021/12/07 13:18:06;;;;;;;;;;;;;;;;;;4166180;28;7168;-52
2021/12/07 13:20:30;;;;;;;;;;;;;;;;;;4164440;28;7006;-52
2021/12/07 13:22:53;;;;;;;;;;;;;;;;;;4167174;28;7443;-52
2021/12/07 13:25:16;;;;;;;;;;;;;;;;;;4165852;28;7002;-52
2021/12/07 13:27:37;;;;;;;;;;;;;;;;;;4164933;28;7006;-52
2021/12/07 13:29:59;;;;;;;;;;;;;;;;;;4159481;28;7065;-52
2021/12/07 13:32:20;;;;;;;;;;;;;;;;;;4164245;28;7215;-52
2021/12/07 13:34:41;;;;;;;;;;;;;;;;;;4164218;28;7108;-53
2021/12/07 13:37:03;;;;;;;;;;;;;;;;;;4153189;28;7017;-51
2021/12/07 13:39:37;;;;;;;;;;;;;;;;;;4163702;28;7047;-51
2021/12/07 13:42:00;;;;;;;;;;;;;;;;;;4181663;28;6994;-52
2021/12/07 13:44:22;;;;;;;;;;;;;;;;;;4182094;28;7043;-52
2021/12/07 13:46:43;;;;;;;;;;;;;;;;;;4181861;28;7003;-52
2021/12/07 13:49:05;;;;;;;;;;;;;;;;;;4175680;28;7029;-51
2021/12/07 13:51:26;;;;;;;;;;;;;;;;;;4128635;28;7383;-51
2021/12/07 13:53:48;;;;;;;;;;;;;;;;;;4131945;28;6990;-52
2021/12/07 13:56:09;;;;;;;;;;;;;;;;;;4132676;28;7085;-52
2021/12/07 13:58:33;;;;;;;;;;;;;;;;;;4133156;28;7002;-51
2021/12/07 14:00:56;;;;;;;;;;;;;;;;;;4117142;28;7030;-52
2021/12/07 14:03:19;;;;;;;;;;;;;;;;;;4119893;28;7325;-53
2021/12/07 14:05:41;;;;;;;;;;;;;;;;;;4129366;28;7010;-52
2021/12/07 14:08:03;;;;;;;;;;;;;;;;;;4129502;28;7034;-51
2021/12/07 14:10:25;;;;;;;;;;;;;;;;;;4117001;28;7042;-51
2021/12/07 14:12:47;;;;;;;;;;;;;;;;;;4123672;28;6998;-52
2021/12/07 14:15:11;;;;;;;;;;;;;;;;;;4116620;28;7018;-52
2021/12/07 14:17:39;;;;;;;;;;;;;;;;;;4132339;28;7034;-52
2021/12/07 14:20:01;;;;;;;;;;;;;;;;;;4132229;28;7022;-52
2021/12/07 14:22:22;;;;;;;;;;;;;;;;;;4128474;28;7015;-51
2021/12/07 14:24:44;;;;;;;;;;;;;;;;;;4126259;28;7031;-51
2021/12/07 14:27:06;;;;;;;;;;;;;;;;;;4132254;28;7026;-52
2021/12/07 14:29:27;;;;;;;;;;;;;;;;;;4132462;28;7006;-52
2021/12/07 14:31:50;;;;;;;;;;;;;;;;;;4132162;28;7146;-51
2021/12/07 14:34:12;;;;;;;;;;;;;;;;;;4130343;28;7006;-51
2021/12/07 14:36:34;;;;;;;;;;;;;;;;;;4132455;28;7211;-52
2021/12/07 14:38:59;;;;;;;;;;;;;;;;;;4129413;28;7532;-52
2021/12/07 14:41:21;;;;;;;;;;;;;;;;;;4128658;28;7050;-52
2021/12/07 14:43:42;;;;;;;;;;;;;;;;;;4116217;28;7202;-52
2021/12/07 14:46:03;;;;;;;;;;;;;;;;;;4119455;28;7006;-51
2021/12/07 14:48:26;;;;;;;;;;;;;;;;;;4132025;28;7015;-51
2021/12/07 14:50:47;;;;;;;;;;;;;;;;;;4143157;28;7041;-52
2021/12/07 14:53:08;;;;;;;;;;;;;;;;;;4161130;28;7045;-51
2021/12/07 14:55:30;;;;;;;;;;;;;;;;;;4164236;28;7057;-52
2021/12/07 14:57:51;;;;;;;;;;;;;;;;;;4170927;28;7104;-51
2021/12/07 15:00:14;;;;;;;;;;;;;;;;;;4180824;28;6982;-52
2021/12/07 15:02:36;;;;;;;;;;;;;;;;;;4171621;28;7033;-51
2021/12/07 15:04:59;;;;;;;;;;;;;;;;;;4157274;28;7268;-51
2021/12/07 15:07:24;;;;;;;;;;;;;;;;;;4163763;28;7463;-52
2021/12/07 15:09:46;;;;;;;;;;;;;;;;;;4164143;28;7019;-52
2021/12/07 15:12:08;;;;;;;;;;;;;;;;;;4163747;28;7494;-52
2021/12/07 15:14:29;;;;;;;;;;;;;;;;;;4164229;28;7006;-52
2021/12/07 15:16:51;;;;;;;;;;;;;;;;;;4163466;28;7210;-52
2021/12/07 15:19:12;;;;;;;;;;;;;;;;;;4164113;28;6978;-51
2021/12/07 15:21:35;;;;;;;;;;;;;;;;;;4162251;28;7022;-51
2021/12/07 15:23:57;;;;;;;;;;;;;;;;;;4163774;28;7002;-51
2021/12/07 15:26:19;;;;;;;;;;;;;;;;;;4163375;28;7019;-52
2021/12/07 15:28:51;;;;;;;;;;;;;;;;;;4162726;28;7133;-53
2021/12/07 15:31:13;;;;;;;;;;;;;;;;;;4164117;28;7003;-51
2021/12/07 15:33:34;;;;;;;;;;;;;;;;;;4163840;28;7296;-52
2021/12/07 15:35:56;;;;;;;;;;;;;;;;;;4163771;28;7112;-51
2021/12/07 15:38:19;;;;;;;;;;;;;;;;;;4162906;28;7046;-52
2021/12/07 15:40:41;;;;;;;;;;;;;;;;;;4147431;28;7011;-51
2021/12/07 15:43:02;;;;;;;;;;;;;;;;;;4154072;28;7069;-52
2021/12/07 15:45:24;;;;;;;;;;;;;;;;;;4164023;28;7214;-51
2021/12/07 15:47:45;;;;;;;;;;;;;;;;;;4163861;28;7007;-51
2021/12/07 15:50:08;;;;;;;;;;;;;;;;;;4151555;28;7014;-51
2021/12/07 15:52:30;;;;;;;;;;;;;;;;;;4147199;28;7406;-51
2021/12/07 15:54:56;;;;;;;;;;;;;;;;;;4147100;28;7458;-52
2021/12/07 15:57:17;;;;;;;;;;;;;;;;;;4147432;28;7248;-51
2021/12/07 15:59:39;;;;;;;;;;;;;;;;;;4147629;28;7118;-51
2021/12/07 16:02:00;;;;;;;;;;;;;;;;;;4170345;28;6999;-51
2021/12/07 16:04:22;;;;;;;;;;;;;;;;;;4163807;28;7438;-51
2021/12/07 16:06:44;;;;;;;;;;;;;;;;;;4163265;28;6982;-51
2021/12/07 16:09:14;;;;;;;;;;;;;;;;;;4163383;28;7026;-51
2021/12/07 16:11:36;;;;;;;;;;;;;;;;;;4162549;28;7003;-51
2021/12/07 16:13:58;;;;;;;;;;;;;;;;;;4160592;28;7522;-51
2021/12/07 16:16:20;;;;;;;;;;;;;;;;;;4163287;28;7006;-51
2021/12/07 16:18:42;;;;;;;;;;;;;;;;;;4163706;28;7100;-53
2021/12/07 16:21:04;;;;;;;;;;;;;;;;;;4159912;28;7002;-51
2021/12/07 16:23:25;;;;;;;;;;;;;;;;;;4163401;28;7113;-51
2021/12/07 16:25:48;;;;;;;;;;;;;;;;;;4163414;28;7006;-51
2021/12/07 16:28:11;;;;;;;;;;;;;;;;;;4162237;28;6994;-51
2021/12/07 16:30:32;;;;;;;;;;;;;;;;;;4163278;28;7010;-51
2021/12/07 16:32:54;;;;;;;;;;;;;;;;;;4163582;28;7015;-54
2021/12/07 16:35:15;;;;;;;;;;;;;;;;;;4163515;28;7205;-51
2021/12/07 16:37:37;;;;;;;;;;;;;;;;;;4147843;28;7120;-51
2021/12/07 16:39:59;;;;;;;;;;;;;;;;;;4160247;28;7011;-50
2021/12/07 16:42:20;;;;;;;;;;;;;;;;;;4160275;28;7053;-51
2021/12/07 16:44:44;;;;;;;;;;;;;;;;;;4160089;28;7230;-51
2021/12/07 16:47:05;;;;;;;;;;;;;;;;;;4160205;28;8111;-51
2021/12/07 16:49:26;;;;;;;;;;;;;;;;;;4160220;28;8177;-51
2021/12/07 16:51:48;;;;;;;;;;;;;;;;;;4159958;28;7287;-51
2021/12/07 16:54:09;;;;;;;;;;;;;;;;;;4160521;28;7051;-51
2021/12/07 16:56:31;;;;;;;;;;;;;;;;;;4161377;28;7003;-51
2021/12/07 16:58:53;;;;;;;;;;;;;;;;;;4162057;28;7019;-51
2021/12/07 17:01:15;;;;;;;;;;;;;;;;;;4158503;28;7180;-51
2021/12/07 17:03:37;;;;;;;;;;;;;;;;;;4165669;28;7006;-51
2021/12/07 17:05:58;;;;;;;;;;;;;;;;;;4161840;28;7011;-51
2021/12/07 17:08:19;;;;;;;;;;;;;;;;;;4150107;28;6991;-51
2021/12/07 17:10:41;;;;;;;;;;;;;;;;;;4165161;28;6995;-51
2021/12/07 17:13:02;;;;;;;;;;;;;;;;;;4154186;28;7470;-52
2021/12/07 17:15:24;;;;;;;;;;;;;;;;;;4163706;28;7015;-51
2021/12/07 17:17:48;;;;;;;;;;;;;;;;;;4162311;28;7202;-51
2021/12/07 17:20:10;;;;;;;;;;;;;;;;;;4164874;28;6986;-51
2021/12/07 17:22:31;;;;;;;;;;;;;;;;;;4164070;28;6986;-52
2021/12/07 17:24:53;;;;;;;;;;;;;;;;;;4149337;28;7041;-51
2021/12/07 17:27:14;;;;;;;;;;;;;;;;;;4149573;28;7727;-51
2021/12/07 17:29:37;;;;;;;;;;;;;;;;;;4149688;28;7010;-54
2021/12/07 17:31:58;;;;;;;;;;;;;;;;;;4173453;28;7090;-51
2021/12/07 17:34:21;;;;;;;;;;;;;;;;;;4149244;28;7041;-51
2021/12/07 17:36:42;;;;;;;;;;;;;;;;;;4158742;28;7019;-51
2021/12/07 17:39:05;;;;;;;;;;;;;;;;;;4165820;28;7006;-51
2021/12/07 17:41:26;;;;;;;;;;;;;;;;;;4163628;28;6990;-51
2021/12/07 17:43:50;;;;;;;;;;;;;;;;;;4170465;28;7201;-50
2021/12/07 17:46:11;;;;;;;;;;;;;;;;;;4149301;28;7085;-50
2021/12/07 17:48:32;;;;;;;;;;;;;;;;;;4148901;28;7022;-51
2021/12/07 17:50:56;;;;;;;;;;;;;;;;;;4148922;28;7037;-50
2021/12/07 17:53:17;;;;;;;;;;;;;;;;;;4149002;28;7002;-50
2021/12/07 17:55:39;;;;;;;;;;;;;;;;;;4149301;28;7026;-51
2021/12/07 17:58:00;;;;;;;;;;;;;;;;;;4151273;28;7030;-51
2021/12/07 18:00:22;;;;;;;;;;;;;;;;;;4165651;28;6986;-51